sensor_id;sensor_type;location;lat;lon;timestamp;temperature;humidity
27671;DHT22;15077;49.704;9.908;2024-01-30T00:01:55;5.10;59.00
27671;DHT22;15077;49.704;9.908;2024-01-30T00:04:21;5.10;59.10
27671;DHT22;15077;49.704;9.908;2024-01-30T00:06:47;5.10;59.20
27671;DHT22;15077;49.704;9.908;2024-01-30T00:09:13;5.10;59.10
27671;DHT22;15077;49.704;9.908;2024-01-30T00:11:39;5.00;59.00
27671;DHT22;15077;49.704;9.908;2024-01-30T00:14:06;5.00;59.00
27671;DHT22;15077;49.704;9.908;2024-01-30T00:16:32;5.00;59.00
27671;DHT22;15077;49.704;9.908;2024-01-30T00:18:57;5.00;59.00
27671;DHT22;15077;49.704;9.908;2024-01-30T00:21:23;5.00;59.10
27671;DHT22;15077;49.704;9.908;2024-01-30T00:23:49;5.00;59.10
27671;DHT22;15077;49.704;9.908;2024-01-30T00:26:15;5.00;59.10
27671;DHT22;15077;49.704;9.908;2024-01-30T00:28:41;5.00;59.10
27671;DHT22;15077;49.704;9.908;2024-01-30T00:31:07;5.00;59.10
27671;DHT22;15077;49.704;9.908;2024-01-30T00:33:40;5.00;59.20
27671;DHT22;15077;49.704;9.908;2024-01-30T00:36:07;4.90;59.10
27671;DHT22;15077;49.704;9.908;2024-01-30T00:38:34;4.90;59.20
27671;DHT22;15077;49.704;9.908;2024-01-30T00:41:00;4.90;59.20
27671;DHT22;15077;49.704;9.908;2024-01-30T00:43:29;4.90;59.20
27671;DHT22;15077;49.704;9.908;2024-01-30T00:45:56;4.90;59.20
27671;DHT22;15077;49.704;9.908;2024-01-30T00:48:23;4.90;59.20
27671;DHT22;15077;49.704;9.908;2024-01-30T00:50:49;4.80;59.20
27671;DHT22;15077;49.704;9.908;2024-01-30T00:53:15;4.90;59.30
27671;DHT22;15077;49.704;9.908;2024-01-30T00:55:40;4.80;59.30
27671;DHT22;15077;49.704;9.908;2024-01-30T00:58:06;4.80;59.30
27671;DHT22;15077;49.704;9.908;2024-01-30T01:00:32;4.80;59.20
27671;DHT22;15077;49.704;9.908;2024-01-30T01:02:58;4.80;59.20
27671;DHT22;15077;49.704;9.908;2024-01-30T01:05:24;4.80;59.20
27671;DHT22;15077;49.704;9.908;2024-01-30T01:07:50;4.70;59.20
27671;DHT22;15077;49.704;9.908;2024-01-30T01:10:16;4.80;59.30
27671;DHT22;15077;49.704;9.908;2024-01-30T01:12:43;4.70;59.30
27671;DHT22;15077;49.704;9.908;2024-01-30T01:15:09;4.70;59.30
27671;DHT22;15077;49.704;9.908;2024-01-30T01:17:36;4.70;59.30
27671;DHT22;15077;49.704;9.908;2024-01-30T01:20:02;4.70;59.30
27671;DHT22;15077;49.704;9.908;2024-01-30T01:22:29;4.70;59.30
27671;DHT22;15077;49.704;9.908;2024-01-30T01:24:55;4.70;59.30
27671;DHT22;15077;49.704;9.908;2024-01-30T01:27:20;4.70;60.00
27671;DHT22;15077;49.704;9.908;2024-01-30T01:29:46;4.70;59.30
27671;DHT22;15077;49.704;9.908;2024-01-30T01:32:12;4.70;59.40
27671;DHT22;15077;49.704;9.908;2024-01-30T01:34:37;4.70;59.40
27671;DHT22;15077;49.704;9.908;2024-01-30T01:37:03;4.60;59.30
27671;DHT22;15077;49.704;9.908;2024-01-30T01:39:29;4.70;59.40
27671;DHT22;15077;49.704;9.908;2024-01-30T01:41:55;4.60;59.30
27671;DHT22;15077;49.704;9.908;2024-01-30T01:44:20;4.60;59.50
27671;DHT22;15077;49.704;9.908;2024-01-30T01:46:46;4.60;59.60
27671;DHT22;15077;49.704;9.908;2024-01-30T01:49:12;4.60;59.60
27671;DHT22;15077;49.704;9.908;2024-01-30T01:51:39;4.60;59.60
27671;DHT22;15077;49.704;9.908;2024-01-30T01:54:06;4.60;59.60
27671;DHT22;15077;49.704;9.908;2024-01-30T01:56:33;4.60;59.80
27671;DHT22;15077;49.704;9.908;2024-01-30T01:59:00;4.50;59.70
27671;DHT22;15077;49.704;9.908;2024-01-30T02:01:31;4.60;59.70
27671;DHT22;15077;49.704;9.908;2024-01-30T02:03:58;4.50;59.70
27671;DHT22;15077;49.704;9.908;2024-01-30T02:06:27;4.50;59.70
27671;DHT22;15077;49.704;9.908;2024-01-30T02:08:56;4.50;59.60
27671;DHT22;15077;49.704;9.908;2024-01-30T02:11:22;4.50;59.70
27671;DHT22;15077;49.704;9.908;2024-01-30T02:13:49;4.50;59.70
27671;DHT22;15077;49.704;9.908;2024-01-30T02:16:15;4.50;59.70
27671;DHT22;15077;49.704;9.908;2024-01-30T02:18:42;4.50;59.70
27671;DHT22;15077;49.704;9.908;2024-01-30T02:21:09;4.50;59.70
27671;DHT22;15077;49.704;9.908;2024-01-30T02:23:34;4.50;59.70
27671;DHT22;15077;49.704;9.908;2024-01-30T02:26:00;4.50;59.60
27671;DHT22;15077;49.704;9.908;2024-01-30T02:28:26;4.50;59.70
27671;DHT22;15077;49.704;9.908;2024-01-30T02:30:52;4.50;59.60
27671;DHT22;15077;49.704;9.908;2024-01-30T02:33:18;4.50;59.60
27671;DHT22;15077;49.704;9.908;2024-01-30T02:35:44;4.50;59.60
27671;DHT22;15077;49.704;9.908;2024-01-30T02:38:09;4.50;59.60
27671;DHT22;15077;49.704;9.908;2024-01-30T02:40:35;4.50;60.20
27671;DHT22;15077;49.704;9.908;2024-01-30T02:43:02;4.50;59.60
27671;DHT22;15077;49.704;9.908;2024-01-30T02:45:28;4.50;59.60
27671;DHT22;15077;49.704;9.908;2024-01-30T02:47:54;4.50;59.60
27671;DHT22;15077;49.704;9.908;2024-01-30T02:50:20;4.50;59.70
27671;DHT22;15077;49.704;9.908;2024-01-30T02:52:45;4.50;59.60
27671;DHT22;15077;49.704;9.908;2024-01-30T02:55:11;4.50;59.70
27671;DHT22;15077;49.704;9.908;2024-01-30T02:57:38;4.50;60.00
27671;DHT22;15077;49.704;9.908;2024-01-30T03:00:04;4.50;60.00
27671;DHT22;15077;49.704;9.908;2024-01-30T03:02:34;4.50;60.00
27671;DHT22;15077;49.704;9.908;2024-01-30T03:05:01;4.50;59.90
27671;DHT22;15077;49.704;9.908;2024-01-30T03:07:26;4.50;59.90
27671;DHT22;15077;49.704;9.908;2024-01-30T03:09:52;4.50;59.90
27671;DHT22;15077;49.704;9.908;2024-01-30T03:12:17;4.50;60.00
27671;DHT22;15077;49.704;9.908;2024-01-30T03:14:43;4.50;59.90
27671;DHT22;15077;49.704;9.908;2024-01-30T03:17:09;4.50;59.90
27671;DHT22;15077;49.704;9.908;2024-01-30T03:19:34;4.50;59.90
27671;DHT22;15077;49.704;9.908;2024-01-30T03:22:00;4.50;59.90
27671;DHT22;15077;49.704;9.908;2024-01-30T03:24:26;4.50;59.90
27671;DHT22;15077;49.704;9.908;2024-01-30T03:26:51;4.50;60.00
27671;DHT22;15077;49.704;9.908;2024-01-30T03:29:17;4.40;60.00
27671;DHT22;15077;49.704;9.908;2024-01-30T03:31:43;4.40;60.00
27671;DHT22;15077;49.704;9.908;2024-01-30T03:34:08;4.40;60.00
27671;DHT22;15077;49.704;9.908;2024-01-30T03:36:34;4.40;60.00
27671;DHT22;15077;49.704;9.908;2024-01-30T03:39:00;4.40;59.90
27671;DHT22;15077;49.704;9.908;2024-01-30T03:41:26;4.40;59.90
27671;DHT22;15077;49.704;9.908;2024-01-30T03:43:52;4.40;60.50
27671;DHT22;15077;49.704;9.908;2024-01-30T03:46:17;4.40;59.90
27671;DHT22;15077;49.704;9.908;2024-01-30T03:48:44;4.40;60.10
27671;DHT22;15077;49.704;9.908;2024-01-30T03:51:10;4.40;60.10
27671;DHT22;15077;49.704;9.908;2024-01-30T03:53:40;4.40;60.10
27671;DHT22;15077;49.704;9.908;2024-01-30T03:56:07;4.30;60.00
27671;DHT22;15077;49.704;9.908;2024-01-30T03:58:33;4.40;60.10
27671;DHT22;15077;49.704;9.908;2024-01-30T04:00:59;4.30;60.00
27671;DHT22;15077;49.704;9.908;2024-01-30T04:03:24;4.30;60.00
27671;DHT22;15077;49.704;9.908;2024-01-30T04:05:53;4.30;60.00
27671;DHT22;15077;49.704;9.908;2024-01-30T04:08:19;4.30;60.00
27671;DHT22;15077;49.704;9.908;2024-01-30T04:10:46;4.30;60.10
27671;DHT22;15077;49.704;9.908;2024-01-30T04:13:13;4.30;60.10
27671;DHT22;15077;49.704;9.908;2024-01-30T04:15:39;4.30;60.00
27671;DHT22;15077;49.704;9.908;2024-01-30T04:18:05;4.30;60.00
27671;DHT22;15077;49.704;9.908;2024-01-30T04:20:31;4.30;60.10
27671;DHT22;15077;49.704;9.908;2024-01-30T04:22:56;4.30;60.10
27671;DHT22;15077;49.704;9.908;2024-01-30T04:25:22;4.20;60.00
27671;DHT22;15077;49.704;9.908;2024-01-30T04:27:48;4.20;60.00
27671;DHT22;15077;49.704;9.908;2024-01-30T04:30:14;4.20;60.00
27671;DHT22;15077;49.704;9.908;2024-01-30T04:32:40;4.20;60.00
27671;DHT22;15077;49.704;9.908;2024-01-30T04:35:06;4.20;60.00
27671;DHT22;15077;49.704;9.908;2024-01-30T04:37:32;4.20;60.00
27671;DHT22;15077;49.704;9.908;2024-01-30T04:39:58;4.20;60.00
27671;DHT22;15077;49.704;9.908;2024-01-30T04:42:23;4.20;60.00
27671;DHT22;15077;49.704;9.908;2024-01-30T04:44:49;4.20;60.10
27671;DHT22;15077;49.704;9.908;2024-01-30T04:47:15;4.20;60.10
27671;DHT22;15077;49.704;9.908;2024-01-30T04:49:41;4.20;60.10
27671;DHT22;15077;49.704;9.908;2024-01-30T04:52:07;4.20;60.20
27671;DHT22;15077;49.704;9.908;2024-01-30T04:54:34;4.20;60.20
27671;DHT22;15077;49.704;9.908;2024-01-30T04:57:00;4.20;60.20
27671;DHT22;15077;49.704;9.908;2024-01-30T04:59:26;4.20;60.20
27671;DHT22;15077;49.704;9.908;2024-01-30T05:01:53;4.20;60.20
27671;DHT22;15077;49.704;9.908;2024-01-30T05:04:18;4.20;60.20
27671;DHT22;15077;49.704;9.908;2024-01-30T05:06:44;4.10;60.90
27671;DHT22;15077;49.704;9.908;2024-01-30T05:09:10;4.10;60.30
27671;DHT22;15077;49.704;9.908;2024-01-30T05:11:37;4.10;60.20
27671;DHT22;15077;49.704;9.908;2024-01-30T05:14:06;4.10;60.10
27671;DHT22;15077;49.704;9.908;2024-01-30T05:16:33;4.10;60.20
27671;DHT22;15077;49.704;9.908;2024-01-30T05:18:58;4.10;60.20
27671;DHT22;15077;49.704;9.908;2024-01-30T05:21:24;4.10;60.10
27671;DHT22;15077;49.704;9.908;2024-01-30T05:23:50;4.10;60.10
27671;DHT22;15077;49.704;9.908;2024-01-30T05:26:16;4.10;60.30
27671;DHT22;15077;49.704;9.908;2024-01-30T05:28:42;4.10;60.30
27671;DHT22;15077;49.704;9.908;2024-01-30T05:31:09;4.10;60.30
27671;DHT22;15077;49.704;9.908;2024-01-30T05:33:35;4.10;60.40
27671;DHT22;15077;49.704;9.908;2024-01-30T05:36:01;4.00;60.30
27671;DHT22;15077;49.704;9.908;2024-01-30T05:38:27;4.00;60.30
27671;DHT22;15077;49.704;9.908;2024-01-30T05:40:52;4.00;60.30
27671;DHT22;15077;49.704;9.908;2024-01-30T05:43:18;4.00;60.30
27671;DHT22;15077;49.704;9.908;2024-01-30T05:45:44;4.00;60.30
27671;DHT22;15077;49.704;9.908;2024-01-30T05:48:10;4.00;60.20
27671;DHT22;15077;49.704;9.908;2024-01-30T05:50:35;4.00;60.20
27671;DHT22;15077;49.704;9.908;2024-01-30T05:53:01;4.00;60.20
27671;DHT22;15077;49.704;9.908;2024-01-30T05:55:27;4.00;60.20
27671;DHT22;15077;49.704;9.908;2024-01-30T05:57:52;4.00;60.30
27671;DHT22;15077;49.704;9.908;2024-01-30T06:00:18;4.00;60.30
27671;DHT22;15077;49.704;9.908;2024-01-30T06:02:44;4.00;60.20
27671;DHT22;15077;49.704;9.908;2024-01-30T06:05:10;4.00;60.20
27671;DHT22;15077;49.704;9.908;2024-01-30T06:07:35;4.00;60.20
27671;DHT22;15077;49.704;9.908;2024-01-30T06:10:01;4.00;60.20
27671;DHT22;15077;49.704;9.908;2024-01-30T06:12:27;4.00;60.30
27671;DHT22;15077;49.704;9.908;2024-01-30T06:14:53;4.00;60.20
27671;DHT22;15077;49.704;9.908;2024-01-30T06:17:22;4.00;60.20
27671;DHT22;15077;49.704;9.908;2024-01-30T06:19:48;4.00;60.30
27671;DHT22;15077;49.704;9.908;2024-01-30T06:22:15;4.00;60.20
27671;DHT22;15077;49.704;9.908;2024-01-30T06:24:41;4.00;60.20
27671;DHT22;15077;49.704;9.908;2024-01-30T06:27:07;4.00;60.20
27671;DHT22;15077;49.704;9.908;2024-01-30T06:29:32;4.00;60.40
27671;DHT22;15077;49.704;9.908;2024-01-30T06:31:58;3.90;60.40
27671;DHT22;15077;49.704;9.908;2024-01-30T06:34:24;3.90;60.40
27671;DHT22;15077;49.704;9.908;2024-01-30T06:36:51;3.90;60.40
27671;DHT22;15077;49.704;9.908;2024-01-30T06:39:17;3.90;60.30
27671;DHT22;15077;49.704;9.908;2024-01-30T06:41:43;3.90;60.40
27671;DHT22;15077;49.704;9.908;2024-01-30T06:44:09;3.80;60.50
27671;DHT22;15077;49.704;9.908;2024-01-30T06:46:34;3.80;60.50
27671;DHT22;15077;49.704;9.908;2024-01-30T06:49:00;3.80;60.50
27671;DHT22;15077;49.704;9.908;2024-01-30T06:51:26;3.80;60.50
27671;DHT22;15077;49.704;9.908;2024-01-30T06:53:52;3.80;60.40
27671;DHT22;15077;49.704;9.908;2024-01-30T06:56:18;3.80;60.40
27671;DHT22;15077;49.704;9.908;2024-01-30T06:58:47;3.80;60.40
27671;DHT22;15077;49.704;9.908;2024-01-30T07:01:14;3.80;60.40
27671;DHT22;15077;49.704;9.908;2024-01-30T07:03:40;3.80;60.40
27671;DHT22;15077;49.704;9.908;2024-01-30T07:06:05;3.80;60.40
27671;DHT22;15077;49.704;9.908;2024-01-30T07:08:31;3.80;60.40
27671;DHT22;15077;49.704;9.908;2024-01-30T07:10:57;3.80;60.40
27671;DHT22;15077;49.704;9.908;2024-01-30T07:13:22;3.80;60.40
27671;DHT22;15077;49.704;9.908;2024-01-30T07:15:48;3.80;60.40
27671;DHT22;15077;49.704;9.908;2024-01-30T07:18:14;3.80;60.40
27671;DHT22;15077;49.704;9.908;2024-01-30T07:20:39;3.80;60.40
27671;DHT22;15077;49.704;9.908;2024-01-30T07:23:11;3.80;60.50
27671;DHT22;15077;49.704;9.908;2024-01-30T07:25:39;3.80;60.40
27671;DHT22;15077;49.704;9.908;2024-01-30T07:28:07;3.80;60.40
27671;DHT22;15077;49.704;9.908;2024-01-30T07:30:34;3.80;60.40
27671;DHT22;15077;49.704;9.908;2024-01-30T07:33:00;3.80;60.40
27671;DHT22;15077;49.704;9.908;2024-01-30T07:35:25;3.80;60.50
27671;DHT22;15077;49.704;9.908;2024-01-30T07:37:51;3.80;60.50
27671;DHT22;15077;49.704;9.908;2024-01-30T07:40:17;3.80;60.50
27671;DHT22;15077;49.704;9.908;2024-01-30T07:42:43;3.80;60.50
27671;DHT22;15077;49.704;9.908;2024-01-30T07:45:08;3.80;60.50
27671;DHT22;15077;49.704;9.908;2024-01-30T07:47:34;3.90;60.50
27671;DHT22;15077;49.704;9.908;2024-01-30T07:50:00;3.90;60.60
27671;DHT22;15077;49.704;9.908;2024-01-30T07:52:26;3.90;60.50
27671;DHT22;15077;49.704;9.908;2024-01-30T07:54:51;3.90;60.50
27671;DHT22;15077;49.704;9.908;2024-01-30T07:57:17;3.90;60.60
27671;DHT22;15077;49.704;9.908;2024-01-30T07:59:43;3.90;60.60
27671;DHT22;15077;49.704;9.908;2024-01-30T08:02:09;3.90;60.60
27671;DHT22;15077;49.704;9.908;2024-01-30T08:04:37;4.00;60.70
27671;DHT22;15077;49.704;9.908;2024-01-30T08:07:02;4.00;60.70
27671;DHT22;15077;49.704;9.908;2024-01-30T08:09:28;4.00;60.80
27671;DHT22;15077;49.704;9.908;2024-01-30T08:11:54;4.00;60.90
27671;DHT22;15077;49.704;9.908;2024-01-30T08:14:20;4.00;60.90
27671;DHT22;15077;49.704;9.908;2024-01-30T08:16:45;4.00;60.90
27671;DHT22;15077;49.704;9.908;2024-01-30T08:19:11;4.00;60.90
27671;DHT22;15077;49.704;9.908;2024-01-30T08:21:37;4.10;61.00
27671;DHT22;15077;49.704;9.908;2024-01-30T08:24:03;4.10;61.00
27671;DHT22;15077;49.704;9.908;2024-01-30T08:26:30;4.10;61.10
27671;DHT22;15077;49.704;9.908;2024-01-30T08:28:56;4.10;61.10
27671;DHT22;15077;49.704;9.908;2024-01-30T08:31:21;4.20;61.20
27671;DHT22;15077;49.704;9.908;2024-01-30T08:33:47;4.20;61.20
27671;DHT22;15077;49.704;9.908;2024-01-30T08:36:13;4.20;61.20
27671;DHT22;15077;49.704;9.908;2024-01-30T08:38:38;4.30;61.40
27671;DHT22;15077;49.704;9.908;2024-01-30T08:41:04;4.30;61.40
27671;DHT22;15077;49.704;9.908;2024-01-30T08:43:30;4.30;61.50
27671;DHT22;15077;49.704;9.908;2024-01-30T08:45:58;4.30;61.60
27671;DHT22;15077;49.704;9.908;2024-01-30T08:48:25;4.40;61.70
27671;DHT22;15077;49.704;9.908;2024-01-30T08:50:51;4.50;61.90
27671;DHT22;15077;49.704;9.908;2024-01-30T08:53:16;4.50;62.10
27671;DHT22;15077;49.704;9.908;2024-01-30T08:55:42;4.50;62.10
27671;DHT22;15077;49.704;9.908;2024-01-30T08:58:08;4.60;62.10
27671;DHT22;15077;49.704;9.908;2024-01-30T09:00:33;4.70;62.20
27671;DHT22;15077;49.704;9.908;2024-01-30T09:02:59;4.80;62.30
27671;DHT22;15077;49.704;9.908;2024-01-30T09:05:24;4.80;62.40
27671;DHT22;15077;49.704;9.908;2024-01-30T09:07:50;4.90;62.50
27671;DHT22;15077;49.704;9.908;2024-01-30T09:10:16;5.00;62.50
27671;DHT22;15077;49.704;9.908;2024-01-30T09:12:42;5.00;62.50
27671;DHT22;15077;49.704;9.908;2024-01-30T09:15:07;5.10;62.70
27671;DHT22;15077;49.704;9.908;2024-01-30T09:17:33;5.20;62.70
27671;DHT22;15077;49.704;9.908;2024-01-30T09:19:59;5.30;62.90
27671;DHT22;15077;49.704;9.908;2024-01-30T09:22:25;5.40;62.90
27671;DHT22;15077;49.704;9.908;2024-01-30T09:24:51;5.50;62.90
27671;DHT22;15077;49.704;9.908;2024-01-30T09:27:16;5.60;62.80
27671;DHT22;15077;49.704;9.908;2024-01-30T09:29:42;5.70;62.90
27671;DHT22;15077;49.704;9.908;2024-01-30T09:32:07;5.80;63.00
27671;DHT22;15077;49.704;9.908;2024-01-30T09:34:34;5.90;63.00
27671;DHT22;15077;49.704;9.908;2024-01-30T09:37:00;5.90;63.00
27671;DHT22;15077;49.704;9.908;2024-01-30T09:39:26;6.10;63.00
27671;DHT22;15077;49.704;9.908;2024-01-30T09:41:55;6.20;63.10
27671;DHT22;15077;49.704;9.908;2024-01-30T09:44:40;6.20;63.20
27671;DHT22;15077;49.704;9.908;2024-01-30T09:47:08;6.40;63.50
27671;DHT22;15077;49.704;9.908;2024-01-30T09:49:35;6.40;63.50
27671;DHT22;15077;49.704;9.908;2024-01-30T09:52:08;6.50;63.60
27671;DHT22;15077;49.704;9.908;2024-01-30T09:54:34;6.60;63.70
27671;DHT22;15077;49.704;9.908;2024-01-30T09:57:00;6.70;64.00
27671;DHT22;15077;49.704;9.908;2024-01-30T09:59:26;6.80;64.10
27671;DHT22;15077;49.704;9.908;2024-01-30T10:01:51;6.90;64.20
27671;DHT22;15077;49.704;9.908;2024-01-30T10:04:19;7.00;64.00
27671;DHT22;15077;49.704;9.908;2024-01-30T10:06:44;7.10;63.80
27671;DHT22;15077;49.704;9.908;2024-01-30T10:11:39;7.20;64.00
27671;DHT22;15077;49.704;9.908;2024-01-30T10:14:05;7.20;64.00
27671;DHT22;15077;49.704;9.908;2024-01-30T10:16:30;7.30;64.00
27671;DHT22;15077;49.704;9.908;2024-01-30T10:18:56;7.30;64.00
27671;DHT22;15077;49.704;9.908;2024-01-30T10:21:22;7.40;63.90
27671;DHT22;15077;49.704;9.908;2024-01-30T10:23:49;7.40;63.90
27671;DHT22;15077;49.704;9.908;2024-01-30T10:26:16;7.50;63.90
27671;DHT22;15077;49.704;9.908;2024-01-30T10:28:42;7.50;64.00
27671;DHT22;15077;49.704;9.908;2024-01-30T10:31:08;7.60;64.10
27671;DHT22;15077;49.704;9.908;2024-01-30T10:33:34;7.60;64.30
27671;DHT22;15077;49.704;9.908;2024-01-30T10:36:03;7.70;64.50
27671;DHT22;15077;49.704;9.908;2024-01-30T10:38:30;7.70;64.60
27671;DHT22;15077;49.704;9.908;2024-01-30T10:40:57;7.80;64.70
27671;DHT22;15077;49.704;9.908;2024-01-30T10:43:24;7.90;64.60
27671;DHT22;15077;49.704;9.908;2024-01-30T10:45:57;8.00;64.60
27671;DHT22;15077;49.704;9.908;2024-01-30T10:48:29;8.10;64.50
27671;DHT22;15077;49.704;9.908;2024-01-30T10:50:55;8.20;64.50
27671;DHT22;15077;49.704;9.908;2024-01-30T10:53:25;8.30;64.40
27671;DHT22;15077;49.704;9.908;2024-01-30T10:55:51;8.40;64.30
27671;DHT22;15077;49.704;9.908;2024-01-30T10:58:17;8.40;64.10
27671;DHT22;15077;49.704;9.908;2024-01-30T11:00:44;8.50;64.00
27671;DHT22;15077;49.704;9.908;2024-01-30T11:03:10;8.50;64.00
27671;DHT22;15077;49.704;9.908;2024-01-30T11:05:40;8.50;64.00
27671;DHT22;15077;49.704;9.908;2024-01-30T11:08:12;8.50;64.00
27671;DHT22;15077;49.704;9.908;2024-01-30T11:10:45;8.50;63.90
27671;DHT22;15077;49.704;9.908;2024-01-30T11:13:13;8.60;63.80
27671;DHT22;15077;49.704;9.908;2024-01-30T11:15:39;8.60;63.70
27671;DHT22;15077;49.704;9.908;2024-01-30T11:18:05;8.60;63.70
27671;DHT22;15077;49.704;9.908;2024-01-30T11:20:31;8.70;63.70
27671;DHT22;15077;49.704;9.908;2024-01-30T11:22:57;8.70;63.80
27671;DHT22;15077;49.704;9.908;2024-01-30T11:25:24;8.70;63.80
27671;DHT22;15077;49.704;9.908;2024-01-30T11:27:54;8.80;63.90
27671;DHT22;15077;49.704;9.908;2024-01-30T11:33:05;8.90;64.10
27671;DHT22;15077;49.704;9.908;2024-01-30T11:35:43;8.90;64.10
27671;DHT22;15077;49.704;9.908;2024-01-30T11:38:11;9.00;64.30
27671;DHT22;15077;49.704;9.908;2024-01-30T11:40:39;9.10;64.40
27671;DHT22;15077;49.704;9.908;2024-01-30T11:43:06;9.20;64.50
27671;DHT22;15077;49.704;9.908;2024-01-30T11:45:34;9.30;64.60
27671;DHT22;15077;49.704;9.908;2024-01-30T11:48:01;9.40;64.70
27671;DHT22;15077;49.704;9.908;2024-01-30T11:50:33;9.60;64.60
27671;DHT22;15077;49.704;9.908;2024-01-30T11:53:02;9.70;64.40
27671;DHT22;15077;49.704;9.908;2024-01-30T11:55:29;9.80;64.30
27671;DHT22;15077;49.704;9.908;2024-01-30T11:57:58;9.90;64.30
27671;DHT22;15077;49.704;9.908;2024-01-30T12:00:24;10.00;64.20
27671;DHT22;15077;49.704;9.908;2024-01-30T12:02:51;10.10;64.20
27671;DHT22;15077;49.704;9.908;2024-01-30T12:05:21;10.20;64.20
27671;DHT22;15077;49.704;9.908;2024-01-30T12:07:47;10.30;64.30
27671;DHT22;15077;49.704;9.908;2024-01-30T12:10:13;10.50;64.30
27671;DHT22;15077;49.704;9.908;2024-01-30T12:12:44;10.60;64.30
27671;DHT22;15077;49.704;9.908;2024-01-30T12:15:12;10.70;64.30
27671;DHT22;15077;49.704;9.908;2024-01-30T12:17:38;10.80;64.10
27671;DHT22;15077;49.704;9.908;2024-01-30T12:22:36;11.00;63.90
27671;DHT22;15077;49.704;9.908;2024-01-30T12:25:08;11.10;63.80
27671;DHT22;15077;49.704;9.908;2024-01-30T12:27:35;11.10;63.60
27671;DHT22;15077;49.704;9.908;2024-01-30T12:30:20;11.10;63.50
27671;DHT22;15077;49.704;9.908;2024-01-30T12:32:46;11.20;63.50
27671;DHT22;15077;49.704;9.908;2024-01-30T12:35:15;11.30;63.60
27671;DHT22;15077;49.704;9.908;2024-01-30T12:37:45;11.40;63.70
27671;DHT22;15077;49.704;9.908;2024-01-30T12:40:12;11.50;63.80
27671;DHT22;15077;49.704;9.908;2024-01-30T12:42:43;11.60;63.80
27671;DHT22;15077;49.704;9.908;2024-01-30T12:45:11;11.80;63.70
27671;DHT22;15077;49.704;9.908;2024-01-30T12:47:38;12.00;63.70
27671;DHT22;15077;49.704;9.908;2024-01-30T12:50:04;12.20;63.80
27671;DHT22;15077;49.704;9.908;2024-01-30T12:52:30;12.30;63.60
27671;DHT22;15077;49.704;9.908;2024-01-30T12:54:56;12.50;63.10
27671;DHT22;15077;49.704;9.908;2024-01-30T12:57:21;12.60;62.80
27671;DHT22;15077;49.704;9.908;2024-01-30T12:59:47;12.70;62.50
27671;DHT22;15077;49.704;9.908;2024-01-30T13:02:14;12.80;62.30
27671;DHT22;15077;49.704;9.908;2024-01-30T13:04:41;12.90;62.20
27671;DHT22;15077;49.704;9.908;2024-01-30T13:07:08;12.90;61.80
27671;DHT22;15077;49.704;9.908;2024-01-30T13:09:34;12.90;61.80
27671;DHT22;15077;49.704;9.908;2024-01-30T13:11:59;12.90;61.50
27671;DHT22;15077;49.704;9.908;2024-01-30T13:14:25;12.90;61.20
27671;DHT22;15077;49.704;9.908;2024-01-30T13:16:51;12.90;61.30
27671;DHT22;15077;49.704;9.908;2024-01-30T13:19:17;12.90;61.30
27671;DHT22;15077;49.704;9.908;2024-01-30T13:21:43;12.90;61.30
27671;DHT22;15077;49.704;9.908;2024-01-30T13:24:08;12.80;61.30
27671;DHT22;15077;49.704;9.908;2024-01-30T13:26:34;12.80;61.30
27671;DHT22;15077;49.704;9.908;2024-01-30T13:29:00;12.70;61.30
27671;DHT22;15077;49.704;9.908;2024-01-30T13:31:26;12.70;61.40
27671;DHT22;15077;49.704;9.908;2024-01-30T13:33:52;12.60;61.10
27671;DHT22;15077;49.704;9.908;2024-01-30T13:36:18;12.60;61.20
27671;DHT22;15077;49.704;9.908;2024-01-30T13:38:44;12.60;61.30
27671;DHT22;15077;49.704;9.908;2024-01-30T13:41:10;12.60;61.10
27671;DHT22;15077;49.704;9.908;2024-01-30T13:43:35;12.50;61.20
27671;DHT22;15077;49.704;9.908;2024-01-30T13:46:01;12.50;61.30
27671;DHT22;15077;49.704;9.908;2024-01-30T13:48:27;12.50;61.20
27671;DHT22;15077;49.704;9.908;2024-01-30T13:50:53;12.50;61.40
27671;DHT22;15077;49.704;9.908;2024-01-30T13:53:19;12.50;61.40
27671;DHT22;15077;49.704;9.908;2024-01-30T13:55:45;12.50;61.40
27671;DHT22;15077;49.704;9.908;2024-01-30T13:58:10;12.50;61.50
27671;DHT22;15077;49.704;9.908;2024-01-30T14:00:36;12.50;61.60
27671;DHT22;15077;49.704;9.908;2024-01-30T14:03:02;12.50;61.70
27671;DHT22;15077;49.704;9.908;2024-01-30T14:05:28;12.50;61.70
27671;DHT22;15077;49.704;9.908;2024-01-30T14:07:54;12.60;61.80
27671;DHT22;15077;49.704;9.908;2024-01-30T14:10:20;12.60;61.80
27671;DHT22;15077;49.704;9.908;2024-01-30T14:12:46;12.60;61.80
27671;DHT22;15077;49.704;9.908;2024-01-30T14:15:13;12.60;61.80
27671;DHT22;15077;49.704;9.908;2024-01-30T14:17:40;12.70;61.90
27671;DHT22;15077;49.704;9.908;2024-01-30T14:20:06;12.70;61.70
27671;DHT22;15077;49.704;9.908;2024-01-30T14:22:33;12.70;61.60
27671;DHT22;15077;49.704;9.908;2024-01-30T14:25:00;12.80;61.60
27671;DHT22;15077;49.704;9.908;2024-01-30T14:27:27;12.80;61.50
27671;DHT22;15077;49.704;9.908;2024-01-30T14:29:53;12.80;61.40
27671;DHT22;15077;49.704;9.908;2024-01-30T14:32:18;12.80;61.20
27671;DHT22;15077;49.704;9.908;2024-01-30T14:34:44;12.80;61.30
27671;DHT22;15077;49.704;9.908;2024-01-30T14:37:10;12.80;61.10
27671;DHT22;15077;49.704;9.908;2024-01-30T14:39:35;12.80;61.10
27671;DHT22;15077;49.704;9.908;2024-01-30T14:42:03;12.80;61.10
27671;DHT22;15077;49.704;9.908;2024-01-30T14:44:29;12.80;61.00
27671;DHT22;15077;49.704;9.908;2024-01-30T14:46:56;12.80;61.00
27671;DHT22;15077;49.704;9.908;2024-01-30T14:49:21;12.80;60.90
27671;DHT22;15077;49.704;9.908;2024-01-30T14:51:47;12.80;60.90
27671;DHT22;15077;49.704;9.908;2024-01-30T14:54:13;12.80;60.80
27671;DHT22;15077;49.704;9.908;2024-01-30T14:56:39;12.80;60.70
27671;DHT22;15077;49.704;9.908;2024-01-30T14:59:05;12.80;60.60
27671;DHT22;15077;49.704;9.908;2024-01-30T15:01:31;12.80;60.60
27671;DHT22;15077;49.704;9.908;2024-01-30T15:03:57;12.70;60.60
27671;DHT22;15077;49.704;9.908;2024-01-30T15:06:22;12.80;60.70
27671;DHT22;15077;49.704;9.908;2024-01-30T15:08:50;12.70;60.60
27671;DHT22;15077;49.704;9.908;2024-01-30T15:11:16;12.70;60.60
27671;DHT22;15077;49.704;9.908;2024-01-30T15:13:42;12.70;60.60
27671;DHT22;15077;49.704;9.908;2024-01-30T15:16:08;12.60;60.60
27671;DHT22;15077;49.704;9.908;2024-01-30T15:18:34;12.60;60.60
27671;DHT22;15077;49.704;9.908;2024-01-30T15:20:59;12.60;60.60
27671;DHT22;15077;49.704;9.908;2024-01-30T15:23:26;12.60;60.60
27671;DHT22;15077;49.704;9.908;2024-01-30T15:25:51;12.60;60.70
27671;DHT22;15077;49.704;9.908;2024-01-30T15:28:17;12.50;60.70
27671;DHT22;15077;49.704;9.908;2024-01-30T15:30:44;12.50;60.70
27671;DHT22;15077;49.704;9.908;2024-01-30T15:33:10;12.50;60.70
27671;DHT22;15077;49.704;9.908;2024-01-30T15:35:35;12.40;60.60
27671;DHT22;15077;49.704;9.908;2024-01-30T15:38:03;12.40;60.60
27671;DHT22;15077;49.704;9.908;2024-01-30T15:40:29;12.40;60.70
27671;DHT22;15077;49.704;9.908;2024-01-30T15:42:55;12.30;60.70
27671;DHT22;15077;49.704;9.908;2024-01-30T15:45:21;12.30;60.70